createdAt,value
2023-05-11T00:01:50.664Z,12.14
2023-05-11T00:04:24.316Z,12.13
2023-05-11T00:06:54.596Z,12.14
2023-05-11T00:09:27.487Z,12.11
2023-05-11T00:12:05.619Z,12.10
2023-05-11T00:14:38.749Z,12.05
2023-05-11T00:17:13.858Z,11.99
2023-05-11T00:19:44.863Z,11.94
2023-05-11T00:22:17.428Z,11.93
2023-05-11T00:24:47.645Z,11.90
2023-05-11T00:27:18.267Z,11.85
2023-05-11T00:29:48.534Z,11.84
2023-05-11T00:32:21.655Z,11.83
2023-05-11T00:34:54.287Z,11.81
2023-05-11T00:37:25.989Z,11.82
2023-05-11T00:39:56.589Z,11.79
2023-05-11T00:42:26.770Z,11.75
2023-05-11T00:44:59.720Z,11.73
2023-05-11T00:47:33.752Z,11.75
2023-05-11T00:50:04.192Z,11.74
2023-05-11T00:52:34.514Z,11.76
2023-05-11T00:55:07.714Z,11.78
2023-05-11T00:57:37.966Z,11.76
2023-05-11T01:00:10.673Z,11.74
2023-05-11T01:02:51.712Z,11.69
2023-05-11T01:05:22.387Z,11.68
2023-05-11T01:08:02.889Z,11.70
2023-05-11T01:10:37.875Z,11.70
2023-05-11T01:13:17.646Z,11.71
2023-05-11T01:15:54.203Z,11.66
2023-05-11T01:18:29.822Z,11.62
2023-05-11T01:21:06.316Z,11.57
2023-05-11T01:24:12.027Z,11.66
2023-05-11T01:26:52.393Z,11.66
2023-05-11T01:30:05.125Z,11.64
2023-05-11T01:32:44.726Z,11.66
2023-05-11T01:35:21.248Z,11.66
2023-05-11T01:37:55.249Z,11.66
2023-05-11T01:40:27.720Z,11.69
2023-05-11T01:43:04.515Z,11.78
2023-05-11T01:45:39.199Z,11.84
2023-05-11T01:48:18.998Z,11.85
2023-05-11T01:50:50.994Z,11.85
2023-05-11T01:53:23.041Z,11.79
2023-05-11T01:55:54.284Z,11.80
2023-05-11T01:58:29.507Z,11.86
2023-05-11T02:01:03.441Z,12.02
2023-05-11T02:03:38.256Z,12.06
2023-05-11T02:06:11.173Z,12.06
2023-05-11T02:08:45.284Z,12.09
2023-05-11T02:11:17.130Z,12.13
2023-05-11T02:13:50.076Z,12.14
2023-05-11T02:16:23.385Z,12.14
2023-05-11T02:18:57.498Z,12.17
2023-05-11T02:21:28.207Z,12.20
2023-05-11T02:24:01.813Z,12.15
2023-05-11T02:26:35.065Z,12.26
2023-05-11T02:29:07.743Z,12.27
2023-05-11T02:31:41.456Z,12.32
2023-05-11T02:34:22.235Z,12.30
2023-05-11T02:36:56.336Z,12.22
2023-05-11T02:39:32.436Z,12.26
2023-05-11T02:42:15.631Z,12.27
2023-05-11T02:44:56.422Z,12.25
2023-05-11T02:47:31.582Z,12.24
2023-05-11T02:50:06.253Z,12.21
2023-05-11T02:52:40.290Z,12.18
2023-05-11T02:55:13.093Z,12.19
2023-05-11T02:57:43.611Z,12.15
2023-05-11T03:00:15.787Z,12.07
2023-05-11T03:02:46.102Z,12.11
2023-05-11T03:05:19.016Z,12.07
2023-05-11T03:07:51.816Z,12.04
2023-05-11T03:10:22.831Z,12.05
2023-05-11T03:12:53.608Z,11.99
2023-05-11T03:15:24.909Z,12.02
2023-05-11T03:17:56.616Z,11.99
2023-05-11T03:20:30.894Z,11.99
2023-05-11T03:23:01.305Z,12.00
2023-05-11T03:25:35.192Z,12.06
2023-05-11T03:28:07.198Z,12.11
2023-05-11T03:30:40.730Z,12.18
2023-05-11T03:33:11.003Z,12.21
2023-05-11T03:35:48.451Z,12.30
2023-05-11T03:38:21.268Z,12.36
2023-05-11T03:40:53.444Z,12.50
2023-05-11T03:43:48.110Z,12.59
2023-05-11T03:46:23.399Z,12.74
2023-05-11T03:48:54.544Z,12.90
2023-05-11T03:51:32.358Z,13.01
2023-05-11T03:54:03.121Z,13.06
2023-05-11T03:56:33.398Z,13.15
2023-05-11T03:59:03.981Z,13.22
2023-05-11T04:01:35.170Z,13.22
2023-05-11T04:04:08.532Z,13.37
2023-05-11T04:06:41.550Z,13.53
2023-05-11T04:09:11.927Z,13.61
2023-05-11T04:11:42.319Z,13.70
2023-05-11T04:14:12.495Z,13.82
2023-05-11T04:16:46.542Z,13.89
2023-05-11T04:19:16.683Z,13.97
2023-05-11T04:21:52.221Z,13.99
2023-05-11T04:24:22.609Z,13.98
2023-05-11T04:26:58.274Z,13.86
2023-05-11T04:29:28.704Z,13.79
2023-05-11T04:31:59.511Z,13.90
2023-05-11T04:34:29.760Z,13.98
2023-05-11T04:37:07.469Z,14.09
2023-05-11T04:39:38.115Z,14.62
2023-05-11T04:42:08.513Z,15.82
2023-05-11T04:44:39.564Z,17.28
2023-05-11T04:47:09.914Z,18.07
2023-05-11T04:49:40.143Z,18.77
2023-05-11T04:52:13.240Z,19.76
2023-05-11T04:54:43.459Z,20.51
2023-05-11T04:57:14.141Z,20.57
2023-05-11T04:59:44.504Z,20.42
2023-05-11T05:02:14.776Z,20.91
2023-05-11T05:04:45.095Z,21.12
2023-05-11T05:07:22.529Z,21.28
2023-05-11T05:09:55.046Z,21.47
2023-05-11T05:12:25.314Z,21.48
2023-05-11T05:14:55.849Z,20.91
2023-05-11T05:17:26.113Z,21.19
2023-05-11T05:19:58.395Z,21.72
2023-05-11T05:22:31.365Z,20.68
2023-05-11T05:25:01.615Z,19.89
2023-05-11T05:27:34.737Z,20.64
2023-05-11T05:30:05.343Z,20.93
2023-05-11T05:32:35.828Z,20.07
2023-05-11T05:35:06.269Z,19.90
2023-05-11T05:37:40.104Z,19.23
2023-05-11T05:40:11.835Z,19.45
2023-05-11T05:42:42.043Z,19.62
2023-05-11T05:45:15.638Z,19.31
2023-05-11T05:47:46.226Z,18.26
2023-05-11T05:50:19.545Z,18.91
2023-05-11T05:52:52.495Z,18.98
2023-05-11T05:55:23.088Z,18.83
2023-05-11T05:57:53.623Z,17.82
2023-05-11T06:00:26.942Z,17.37
2023-05-11T06:02:59.593Z,17.55
2023-05-11T06:05:30.146Z,18.17
2023-05-11T06:08:10.594Z,18.66
2023-05-11T06:10:41.717Z,18.93
2023-05-11T06:13:15.407Z,18.75
2023-05-11T06:15:45.967Z,18.24
2023-05-11T06:18:16.566Z,19.14
2023-05-11T06:20:46.864Z,19.87
2023-05-11T06:23:22.062Z,19.41
2023-05-11T06:25:55.217Z,20.21
2023-05-11T06:28:25.896Z,20.74
2023-05-11T06:30:59.366Z,21.21
2023-05-11T06:33:30.188Z,22.02
2023-05-11T06:36:01.617Z,21.96
2023-05-11T06:38:35.894Z,20.72
2023-05-11T06:41:06.533Z,20.81
2023-05-11T06:43:43.133Z,20.70
2023-05-11T06:46:16.575Z,19.68
2023-05-11T06:48:50.451Z,20.82
2023-05-11T06:51:22.037Z,21.20
2023-05-11T06:53:57.442Z,21.66
2023-05-11T06:56:29.973Z,21.92
2023-05-11T06:59:00.684Z,22.47
2023-05-11T07:01:31.805Z,22.58
2023-05-11T07:04:02.396Z,21.94
2023-05-11T07:06:33.839Z,22.66
2023-05-11T07:09:06.785Z,22.64
2023-05-11T07:11:38.727Z,21.56
2023-05-11T07:14:11.418Z,22.03
2023-05-11T07:16:41.706Z,21.21
2023-05-11T07:19:12.229Z,22.20
2023-05-11T07:21:46.080Z,21.97
2023-05-11T07:24:19.116Z,22.33
2023-05-11T07:26:52.163Z,22.47
2023-05-11T07:29:28.541Z,22.19
2023-05-11T07:31:58.890Z,22.39
2023-05-11T07:34:29.263Z,22.43
2023-05-11T07:36:59.651Z,22.56
2023-05-11T07:39:39.859Z,22.05
2023-05-11T07:42:10.166Z,22.53
2023-05-11T07:44:40.484Z,21.85
2023-05-11T07:47:13.632Z,22.78
2023-05-11T07:49:44.739Z,22.43
2023-05-11T07:52:17.750Z,23.12
2023-05-11T07:54:52.298Z,22.72
2023-05-11T07:57:23.777Z,22.17
2023-05-11T07:59:54.265Z,22.69
2023-05-11T08:02:32.826Z,23.02
2023-05-11T08:05:03.106Z,22.59
2023-05-11T08:07:36.556Z,23.38
2023-05-11T08:10:15.415Z,23.72
2023-05-11T08:12:47.512Z,23.88
2023-05-11T08:15:18.200Z,23.84
2023-05-11T08:17:49.076Z,23.96
2023-05-11T08:20:19.534Z,23.58
2023-05-11T08:22:49.918Z,23.55
2023-05-11T08:25:27.884Z,23.02
2023-05-11T08:27:58.072Z,23.67
2023-05-11T08:30:28.310Z,23.83
2023-05-11T08:32:59.441Z,22.35
2023-05-11T08:35:30.487Z,22.14
2023-05-11T08:38:00.786Z,23.20
2023-05-11T08:40:47.027Z,23.17
2023-05-11T08:43:17.936Z,22.94
2023-05-11T08:45:50.745Z,23.68
2023-05-11T08:48:23.325Z,23.89
2023-05-11T08:50:54.000Z,23.39
2023-05-11T08:53:25.018Z,23.40
2023-05-11T08:55:58.544Z,23.48
2023-05-11T08:58:32.345Z,23.26
2023-05-11T09:01:06.636Z,22.57
2023-05-11T09:03:39.522Z,23.11
2023-05-11T09:06:13.635Z,22.18
2023-05-11T09:08:45.070Z,22.09
2023-05-11T09:11:18.834Z,22.53
2023-05-11T09:13:49.018Z,23.15
2023-05-11T09:16:32.949Z,22.26
2023-05-11T09:19:07.869Z,21.31
2023-05-11T09:21:38.222Z,21.99
2023-05-11T09:24:14.744Z,22.96
2023-05-11T09:26:47.505Z,22.36
2023-05-11T09:29:23.953Z,22.29
2023-05-11T09:31:54.422Z,22.70
2023-05-11T09:34:26.186Z,22.40
2023-05-11T09:36:58.496Z,22.77
2023-05-11T09:42:19.952Z,23.31
2023-05-11T09:44:50.485Z,23.34
2023-05-11T09:47:23.176Z,22.67
2023-05-11T09:49:53.512Z,23.13
2023-05-11T09:52:23.969Z,22.77
2023-05-11T09:54:56.986Z,23.31
2023-05-11T09:57:32.004Z,23.30
2023-05-11T10:00:06.678Z,23.02
2023-05-11T10:02:36.973Z,22.62
2023-05-11T10:05:18.411Z,21.88
2023-05-11T10:08:00.168Z,22.76
2023-05-11T10:10:35.262Z,22.79
2023-05-11T10:13:08.161Z,23.00
2023-05-11T10:15:39.460Z,23.34
2023-05-11T10:18:12.693Z,23.50
2023-05-11T10:20:43.702Z,23.35
2023-05-11T10:23:16.423Z,23.88
2023-05-11T10:25:49.536Z,23.76
2023-05-11T10:28:23.401Z,23.74
2023-05-11T10:30:55.368Z,23.72
2023-05-11T10:33:29.227Z,23.33
2023-05-11T10:36:00.137Z,23.81
2023-05-11T10:38:31.506Z,23.60
2023-05-11T10:41:10.883Z,23.57
2023-05-11T10:43:57.676Z,23.11
2023-05-11T10:46:47.734Z,22.80
2023-05-11T10:49:49.074Z,22.63
2023-05-11T10:52:35.470Z,22.77
2023-05-11T10:55:16.999Z,23.28
2023-05-11T10:58:06.669Z,23.23
2023-05-11T11:01:19.897Z,23.30
2023-05-11T11:04:03.065Z,23.15
2023-05-11T11:06:35.073Z,23.27
2023-05-11T11:09:08.278Z,22.87
2023-05-11T11:11:40.770Z,22.82
2023-05-11T11:14:13.008Z,23.36
2023-05-11T11:17:23.449Z,24.01
2023-05-11T11:19:53.714Z,22.41
2023-05-11T11:22:48.698Z,22.98
2023-05-11T11:25:36.712Z,22.56
2023-05-11T11:28:07.208Z,22.99
2023-05-11T11:30:39.157Z,23.44
2023-05-11T11:33:38.773Z,22.76
2023-05-11T11:36:16.649Z,22.80
2023-05-11T11:39:02.738Z,23.22
2023-05-11T11:41:33.487Z,23.43
2023-05-11T11:44:04.446Z,22.32
2023-05-11T11:46:34.776Z,21.82
2023-05-11T11:49:13.676Z,22.77
2023-05-11T11:51:43.994Z,23.15
2023-05-11T11:54:14.283Z,23.86
2023-05-11T11:56:48.154Z,23.30
2023-05-11T11:59:19.237Z,24.04
2023-05-11T12:01:57.281Z,23.94
2023-05-11T12:05:00.052Z,23.24
2023-05-11T12:07:35.984Z,23.16
2023-05-11T12:10:06.962Z,22.22
2023-05-11T12:12:41.247Z,22.61
2023-05-11T12:15:14.659Z,23.21
2023-05-11T12:17:44.942Z,23.69
2023-05-11T12:20:20.340Z,23.62
2023-05-11T12:22:51.659Z,23.51
2023-05-11T12:25:23.610Z,23.59
2023-05-11T12:27:59.591Z,23.55
2023-05-11T12:30:31.451Z,23.15
2023-05-11T12:33:04.636Z,23.59
2023-05-11T12:35:40.595Z,23.73
2023-05-11T12:38:14.320Z,23.87
2023-05-11T12:40:51.159Z,22.95
2023-05-11T12:43:25.950Z,23.12
2023-05-11T12:45:56.303Z,22.57
2023-05-11T12:48:26.660Z,22.52
2023-05-11T12:51:02.482Z,22.78
2023-05-11T12:53:38.968Z,23.21
2023-05-11T12:56:12.923Z,23.45
2023-05-11T12:58:46.616Z,23.60
2023-05-11T13:01:17.084Z,23.53
2023-05-11T13:03:51.779Z,23.83
2023-05-11T13:06:24.764Z,22.92
2023-05-11T13:08:55.026Z,22.51
2023-05-11T13:11:27.099Z,23.19
2023-05-11T13:14:01.839Z,23.46
2023-05-11T13:16:33.537Z,22.83
2023-05-11T13:19:05.182Z,23.62
2023-05-11T13:21:38.477Z,23.40
2023-05-11T13:24:09.590Z,22.52
2023-05-11T13:26:39.820Z,23.05
2023-05-11T13:29:12.953Z,23.21
2023-05-11T13:31:46.854Z,23.60
2023-05-11T13:34:17.422Z,23.18
2023-05-11T13:36:50.634Z,22.79
2023-05-11T13:39:21.084Z,23.44
2023-05-11T13:41:52.271Z,23.61
2023-05-11T13:44:23.365Z,23.24
2023-05-11T13:46:53.990Z,23.79
2023-05-11T13:49:24.737Z,23.44
2023-05-11T13:51:58.086Z,23.55
2023-05-11T13:54:28.428Z,23.46
2023-05-11T13:57:01.428Z,23.39
2023-05-11T13:59:32.085Z,23.26
2023-05-11T14:02:02.378Z,23.37
2023-05-11T14:04:32.604Z,23.43
2023-05-11T14:07:05.517Z,23.16
2023-05-11T14:09:37.330Z,23.24
2023-05-11T14:12:08.466Z,23.26
2023-05-11T14:14:38.815Z,23.13
2023-05-11T14:17:09.145Z,23.30
2023-05-11T14:19:40.817Z,23.20
2023-05-11T14:22:13.770Z,23.18
2023-05-11T14:24:44.133Z,23.06
2023-05-11T14:27:14.658Z,23.08
2023-05-11T14:29:45.599Z,23.11
2023-05-11T14:32:16.082Z,23.14
2023-05-11T14:34:46.399Z,23.25
2023-05-11T14:37:24.972Z,23.15
2023-05-11T14:39:55.267Z,23.31
2023-05-11T14:42:29.719Z,23.03
2023-05-11T14:45:02.329Z,23.03
2023-05-11T14:47:33.506Z,22.87
2023-05-11T14:50:03.854Z,22.82
2023-05-11T14:52:38.468Z,22.72
2023-05-11T14:55:09.892Z,23.07
2023-05-11T14:57:41.202Z,22.50
2023-05-11T15:00:15.999Z,22.91
2023-05-11T15:02:46.301Z,22.94
2023-05-11T15:05:16.907Z,22.78
2023-05-11T15:07:59.734Z,22.80
2023-05-11T15:10:30.284Z,22.79
2023-05-11T15:13:00.708Z,22.71
2023-05-11T15:15:31.206Z,22.70
2023-05-11T15:18:04.923Z,22.79
2023-05-11T15:20:36.265Z,22.84
2023-05-11T15:23:09.299Z,22.82
2023-05-11T15:25:40.168Z,23.00
2023-05-11T15:28:11.438Z,23.10
2023-05-11T15:30:46.451Z,23.00
2023-05-11T15:33:18.126Z,23.09
2023-05-11T15:35:50.341Z,23.07
2023-05-11T15:38:23.181Z,23.05
2023-05-11T15:40:53.693Z,22.92
2023-05-11T15:43:23.945Z,22.93
2023-05-11T15:45:54.457Z,22.82
2023-05-11T15:48:26.806Z,22.50
2023-05-11T15:50:57.192Z,22.61
2023-05-11T15:53:30.365Z,22.47
2023-05-11T15:56:00.685Z,22.41
2023-05-11T15:58:34.271Z,22.54
2023-05-11T16:01:04.688Z,22.39
2023-05-11T16:03:35.412Z,22.30
2023-05-11T16:06:06.290Z,22.26
2023-05-11T16:08:39.542Z,22.27
2023-05-11T16:11:10.010Z,22.60
2023-05-11T16:13:48.971Z,22.58
2023-05-11T16:16:19.275Z,22.40
2023-05-11T16:18:49.680Z,22.21
2023-05-11T16:21:20.005Z,22.27
2023-05-11T16:23:52.863Z,22.25
2023-05-11T16:26:23.434Z,22.16
2023-05-11T16:28:53.628Z,21.80
2023-05-11T16:31:23.995Z,21.54
2023-05-11T16:33:57.217Z,21.56
2023-05-11T16:36:28.466Z,21.42
2023-05-11T16:39:01.318Z,21.62
2023-05-11T16:41:31.838Z,21.59
2023-05-11T16:44:02.112Z,21.65
2023-05-11T16:46:32.452Z,21.75
2023-05-11T16:49:02.998Z,21.50
2023-05-11T16:51:34.324Z,21.42
2023-05-11T16:54:07.478Z,21.52
2023-05-11T16:56:38.041Z,21.54
2023-05-11T16:59:12.373Z,21.24
2023-05-11T17:01:46.367Z,21.34
2023-05-11T17:04:17.069Z,21.39
2023-05-11T17:06:53.173Z,21.44
2023-05-11T17:09:26.291Z,21.22
2023-05-11T17:11:56.632Z,21.30
2023-05-11T17:14:29.290Z,21.26
2023-05-11T17:16:59.564Z,21.25
2023-05-11T17:19:29.880Z,21.17
2023-05-11T17:22:00.430Z,21.01
2023-05-11T17:24:33.853Z,20.97
2023-05-11T17:27:04.251Z,20.83
2023-05-11T17:29:34.658Z,20.81
2023-05-11T17:32:05.017Z,20.70
2023-05-11T17:34:35.487Z,20.62
2023-05-11T17:37:12.653Z,20.46
2023-05-11T17:39:50.372Z,20.58
2023-05-11T17:42:21.727Z,20.55
2023-05-11T17:44:52.002Z,20.48
2023-05-11T17:47:22.516Z,20.40
2023-05-11T17:49:52.908Z,20.11
2023-05-11T17:52:23.434Z,20.16
2023-05-11T17:54:56.422Z,20.21
2023-05-11T17:57:26.826Z,20.05
2023-05-11T17:59:57.239Z,20.09
2023-05-11T18:02:27.637Z,20.09
2023-05-11T18:05:00.391Z,19.92
2023-05-11T18:07:31.942Z,19.87
2023-05-11T18:10:04.954Z,20.01
2023-05-11T18:12:37.841Z,19.84
2023-05-11T18:15:12.083Z,19.91
2023-05-11T18:17:42.402Z,19.87
2023-05-11T18:20:16.865Z,19.85
2023-05-11T18:22:47.297Z,19.86
2023-05-11T18:25:28.144Z,19.49
2023-05-11T18:27:59.476Z,19.69
2023-05-11T18:30:31.314Z,19.68
2023-05-11T18:33:02.179Z,19.68
2023-05-11T18:35:33.010Z,19.41
2023-05-11T18:38:09.946Z,19.31
2023-05-11T18:40:45.353Z,19.14
2023-05-11T18:43:16.099Z,19.28
2023-05-11T18:45:46.902Z,19.11
2023-05-11T18:48:17.644Z,19.24
2023-05-11T18:50:48.327Z,18.96
2023-05-11T18:53:19.087Z,18.91
2023-05-11T18:55:53.622Z,18.72
2023-05-11T18:58:27.410Z,18.64
2023-05-11T19:00:58.329Z,18.81
2023-05-11T19:03:31.919Z,18.87
2023-05-11T19:06:03.620Z,18.68
2023-05-11T19:08:34.287Z,18.66
2023-05-11T19:11:15.740Z,18.44
2023-05-11T19:13:46.821Z,18.48
2023-05-11T19:16:17.535Z,18.43
2023-05-11T19:18:53.809Z,18.39
2023-05-11T19:21:24.496Z,18.52
2023-05-11T19:23:55.522Z,18.48
2023-05-11T19:26:28.974Z,18.50
2023-05-11T19:28:59.701Z,18.51
2023-05-11T19:31:31.786Z,18.44
2023-05-11T19:34:03.129Z,18.29
2023-05-11T19:36:33.773Z,18.17
2023-05-11T19:39:04.696Z,18.03
2023-05-11T19:41:38.082Z,18.11
2023-05-11T19:44:08.754Z,18.04
2023-05-11T19:46:47.182Z,17.99
2023-05-11T19:49:20.396Z,18.27
2023-05-11T19:51:50.795Z,18.25
2023-05-11T19:54:24.667Z,18.30
2023-05-11T19:57:00.086Z,18.08
2023-05-11T19:59:33.138Z,17.98
2023-05-11T20:02:06.725Z,18.16
2023-05-11T20:04:37.092Z,18.20
2023-05-11T20:07:20.405Z,18.29
2023-05-11T20:09:50.803Z,18.29
2023-05-11T20:12:23.971Z,18.19
2023-05-11T20:14:55.667Z,18.18
2023-05-11T20:17:26.245Z,18.24
2023-05-11T20:19:56.619Z,18.30
2023-05-11T20:22:26.862Z,18.24
2023-05-11T20:24:57.686Z,18.02
2023-05-11T20:27:31.786Z,18.24
2023-05-11T20:30:02.252Z,18.32
2023-05-11T20:32:37.455Z,18.32
2023-05-11T20:35:11.451Z,18.31
2023-05-11T20:37:41.769Z,18.30
2023-05-11T20:40:16.541Z,18.16
2023-05-11T20:42:52.300Z,18.06
2023-05-11T20:45:23.946Z,18.02
2023-05-11T20:47:57.445Z,18.04
2023-05-11T20:50:29.275Z,17.96
2023-05-11T20:53:01.467Z,17.85
2023-05-11T20:55:31.858Z,17.74
2023-05-11T20:58:05.237Z,17.72
2023-05-11T21:00:35.815Z,17.55
2023-05-11T21:03:06.474Z,17.44
2023-05-11T21:05:39.711Z,17.46
2023-05-11T21:08:10.178Z,17.42
2023-05-11T21:10:40.460Z,17.38
2023-05-11T21:13:13.465Z,17.34
2023-05-11T21:15:43.636Z,17.23
2023-05-11T21:18:14.035Z,17.15
2023-05-11T21:20:44.489Z,17.13
2023-05-11T21:23:14.821Z,17.09
2023-05-11T21:25:45.074Z,16.94
2023-05-11T21:28:17.901Z,16.88
2023-05-11T21:30:51.377Z,16.80
2023-05-11T21:33:30.029Z,16.75
2023-05-11T21:36:00.621Z,16.67
2023-05-11T21:38:30.887Z,16.65
2023-05-11T21:41:01.117Z,16.59
2023-05-11T21:43:34.114Z,16.60
2023-05-11T21:46:04.418Z,16.54
2023-05-11T21:48:34.713Z,16.54
2023-05-11T21:51:05.031Z,16.53
2023-05-11T21:53:35.601Z,16.50
2023-05-11T21:56:10.103Z,16.46
2023-05-11T21:58:45.219Z,16.40
2023-05-11T22:01:15.545Z,16.40
2023-05-11T22:03:49.032Z,16.37
2023-05-11T22:06:24.493Z,16.30
2023-05-11T22:08:54.978Z,16.30
2023-05-11T22:11:25.203Z,16.29
2023-05-11T22:13:58.048Z,16.24
2023-05-11T22:16:28.430Z,16.21
2023-05-11T22:18:58.775Z,16.19
2023-05-11T22:21:29.158Z,16.17
2023-05-11T22:24:02.397Z,16.15
2023-05-11T22:26:33.077Z,16.12
2023-05-11T22:29:06.445Z,16.12
2023-05-11T22:31:38.631Z,16.07
2023-05-11T22:34:08.889Z,16.13
2023-05-11T22:36:41.991Z,16.10
2023-05-11T22:39:18.271Z,16.03
2023-05-11T22:41:48.821Z,16.01
2023-05-11T22:44:21.847Z,15.98
2023-05-11T22:46:52.495Z,15.96
2023-05-11T22:49:22.922Z,15.94
2023-05-11T22:51:53.264Z,15.94
2023-05-11T22:54:23.644Z,15.96
2023-05-11T22:56:53.786Z,15.92
2023-05-11T22:59:28.823Z,15.89
2023-05-11T23:02:01.933Z,15.85
2023-05-11T23:04:34.200Z,15.85
2023-05-11T23:07:13.051Z,15.80
2023-05-11T23:09:43.356Z,15.77
2023-05-11T23:12:13.730Z,15.73
2023-05-11T23:14:47.622Z,15.74
2023-05-11T23:17:18.282Z,15.71
2023-05-11T23:19:48.525Z,15.69
2023-05-11T23:22:18.780Z,15.67
2023-05-11T23:24:48.959Z,15.66
2023-05-11T23:27:20.271Z,15.63
2023-05-11T23:29:56.060Z,15.64
2023-05-11T23:32:26.480Z,15.64
2023-05-11T23:34:56.757Z,15.66
2023-05-11T23:37:29.767Z,15.67
2023-05-11T23:39:59.990Z,15.70
2023-05-11T23:42:30.749Z,15.71
2023-05-11T23:45:05.087Z,15.69
2023-05-11T23:47:35.913Z,15.73
2023-05-11T23:50:06.477Z,15.72
2023-05-11T23:52:36.831Z,15.71
2023-05-11T23:55:07.921Z,15.71
2023-05-11T23:57:38.384Z,15.66
